createdAt,value
2023-03-19T00:01:08.639Z,9.18
2023-03-19T00:03:38.084Z,9.57
2023-03-19T00:06:07.455Z,7.93
2023-03-19T00:08:36.634Z,9.50
2023-03-19T00:11:08.636Z,8.52
2023-03-19T00:13:37.846Z,7.72
2023-03-19T00:16:10.058Z,8.57
2023-03-19T00:18:39.354Z,7.80
2023-03-19T00:21:08.726Z,7.55
2023-03-19T00:23:38.069Z,7.18
2023-03-19T00:26:07.653Z,8.90
2023-03-19T00:28:37.411Z,8.45
2023-03-19T00:31:13.530Z,7.65
2023-03-19T00:33:42.828Z,7.38
2023-03-19T00:36:12.974Z,7.78
2023-03-19T00:38:42.236Z,7.07
2023-03-19T00:41:11.530Z,8.32
2023-03-19T00:43:41.208Z,8.23
2023-03-19T00:46:13.094Z,7.50
2023-03-19T00:48:42.296Z,7.78
2023-03-19T00:51:12.145Z,8.30
2023-03-19T00:53:42.254Z,8.68
2023-03-19T00:56:11.644Z,7.73
2023-03-19T00:58:41.244Z,6.93
2023-03-19T01:01:14.072Z,8.40
2023-03-19T01:03:43.637Z,8.45
2023-03-19T01:06:12.986Z,6.45
2023-03-19T01:08:42.253Z,6.35
2023-03-19T01:11:11.908Z,6.95
2023-03-19T01:13:41.445Z,6.35
2023-03-19T01:16:13.296Z,5.15
2023-03-19T01:18:42.476Z,6.20
2023-03-19T01:21:11.674Z,6.18
2023-03-19T01:23:41.005Z,4.72
2023-03-19T01:26:10.224Z,6.80
2023-03-19T01:28:39.606Z,6.45
2023-03-19T01:31:09.034Z,6.90
2023-03-19T01:33:40.853Z,6.88
2023-03-19T01:36:11.221Z,6.53
2023-03-19T01:38:40.410Z,7.43
2023-03-19T01:41:09.684Z,7.22
2023-03-19T01:43:39.074Z,8.18
2023-03-19T01:46:08.990Z,7.05
2023-03-19T01:48:42.109Z,8.45
2023-03-19T01:51:11.656Z,5.40
2023-03-19T01:53:41.135Z,5.75
2023-03-19T01:56:11.750Z,6.63
2023-03-19T01:58:41.287Z,8.20
2023-03-19T02:01:10.657Z,7.78
2023-03-19T02:03:42.754Z,6.10
2023-03-19T02:06:12.301Z,7.07
2023-03-19T02:08:41.712Z,8.52
2023-03-19T02:11:10.872Z,10.02
2023-03-19T02:13:40.092Z,8.70
2023-03-19T02:16:09.966Z,7.30
2023-03-19T02:18:39.294Z,6.38
2023-03-19T02:21:11.459Z,8.15
2023-03-19T02:23:42.064Z,8.65
2023-03-19T02:26:13.998Z,7.32
2023-03-19T02:28:44.381Z,7.57
2023-03-19T02:31:13.764Z,8.80
2023-03-19T02:33:43.183Z,8.05
2023-03-19T02:36:13.252Z,8.65
2023-03-19T02:38:42.472Z,9.77
2023-03-19T02:41:14.248Z,8.95
2023-03-19T02:43:43.695Z,9.57
2023-03-19T02:46:13.893Z,6.95
2023-03-19T02:48:43.983Z,8.68
2023-03-19T02:51:13.605Z,7.40
2023-03-19T02:53:42.836Z,9.57
2023-03-19T02:56:14.624Z,9.25
2023-03-19T02:58:43.806Z,8.80
2023-03-19T03:01:13.057Z,8.77
2023-03-19T03:03:42.792Z,8.63
2023-03-19T03:06:12.153Z,8.57
2023-03-19T03:08:41.359Z,10.15
2023-03-19T03:11:10.544Z,8.80
2023-03-19T03:13:43.288Z,7.97
2023-03-19T03:16:12.711Z,8.95
2023-03-19T03:18:42.581Z,8.85
2023-03-19T03:21:12.300Z,9.30
2023-03-19T03:23:41.493Z,8.30
2023-03-19T03:26:10.667Z,8.30
2023-03-19T03:28:42.440Z,8.93
2023-03-19T03:31:12.082Z,7.20
2023-03-19T03:33:41.321Z,7.88
2023-03-19T03:36:11.214Z,7.57
2023-03-19T03:38:40.648Z,6.50
2023-03-19T03:41:09.868Z,6.20
2023-03-19T03:43:39.514Z,6.60
2023-03-19T03:46:11.443Z,8.10
2023-03-19T03:48:40.680Z,6.03
2023-03-19T03:51:10.170Z,7.22
2023-03-19T03:53:39.353Z,8.57
2023-03-19T03:56:09.008Z,7.53
2023-03-19T03:58:38.191Z,8.45
2023-03-19T04:01:07.752Z,7.55
2023-03-19T04:03:41.416Z,8.80
2023-03-19T04:06:10.644Z,8.63
2023-03-19T04:08:39.834Z,8.70
2023-03-19T04:11:09.577Z,7.60
2023-03-19T04:13:39.273Z,7.63
2023-03-19T04:16:09.640Z,8.63
2023-03-19T04:18:41.493Z,10.40
2023-03-19T04:21:10.721Z,8.30
2023-03-19T04:23:39.906Z,8.32
2023-03-19T04:26:09.611Z,6.25
2023-03-19T04:28:38.791Z,6.75
2023-03-19T04:31:08.391Z,8.98
2023-03-19T04:33:37.887Z,9.52
2023-03-19T04:36:09.945Z,7.95
2023-03-19T04:38:39.216Z,9.70
2023-03-19T04:41:09.002Z,8.32
2023-03-19T04:43:38.166Z,8.70
2023-03-19T04:46:08.157Z,9.30
2023-03-19T04:48:39.468Z,8.07
2023-03-19T04:51:11.270Z,7.97
2023-03-19T04:53:40.618Z,9.15
2023-03-19T04:56:10.335Z,7.65
2023-03-19T04:58:39.550Z,8.43
2023-03-19T05:01:09.204Z,8.95
2023-03-19T05:03:38.480Z,9.35
2023-03-19T05:06:08.025Z,8.50
2023-03-19T05:08:39.936Z,8.25
2023-03-19T05:11:09.145Z,5.95
2023-03-19T05:13:38.357Z,8.10
2023-03-19T05:16:08.076Z,9.07
2023-03-19T05:18:40.081Z,7.55
2023-03-19T05:21:12.271Z,7.07
2023-03-19T05:26:13.103Z,8.65
2023-03-19T05:28:43.831Z,7.00
2023-03-19T05:31:13.080Z,6.78
2023-03-19T05:33:42.293Z,7.68
2023-03-19T05:36:12.477Z,6.47
2023-03-19T05:38:42.094Z,6.17
2023-03-19T05:41:14.034Z,7.38
2023-03-19T05:43:43.237Z,8.55
2023-03-19T05:46:12.490Z,8.80
2023-03-19T05:48:42.400Z,7.35
2023-03-19T05:51:11.699Z,8.05
2023-03-19T05:53:41.231Z,8.65
2023-03-19T05:56:11.172Z,7.85
2023-03-19T05:58:42.991Z,5.75
2023-03-19T06:01:12.257Z,6.93
2023-03-19T06:03:41.690Z,5.97
2023-03-19T06:06:11.042Z,5.18
2023-03-19T06:08:40.267Z,6.85
2023-03-19T06:11:09.528Z,7.10
2023-03-19T06:13:39.253Z,6.55
2023-03-19T06:16:11.530Z,8.45
2023-03-19T06:18:41.133Z,8.60
2023-03-19T06:21:10.417Z,7.32
2023-03-19T06:23:39.636Z,7.80
2023-03-19T06:26:09.365Z,8.18
2023-03-19T06:28:38.966Z,6.65
2023-03-19T06:31:10.752Z,7.72
2023-03-19T06:33:39.971Z,9.07
2023-03-19T06:36:09.453Z,7.90
2023-03-19T06:38:38.780Z,8.13
2023-03-19T06:41:07.988Z,7.72
2023-03-19T06:43:41.376Z,7.35
2023-03-19T06:46:13.428Z,7.20
2023-03-19T06:48:42.679Z,8.07
2023-03-19T06:51:11.927Z,5.88
2023-03-19T06:53:41.186Z,7.28
2023-03-19T06:56:10.449Z,8.02
2023-03-19T06:58:39.689Z,7.88
2023-03-19T07:01:09.343Z,9.15
2023-03-19T07:03:41.262Z,8.90
2023-03-19T07:06:10.540Z,9.40
2023-03-19T07:08:39.723Z,6.40
2023-03-19T07:11:09.163Z,7.25
2023-03-19T07:13:38.381Z,8.23
2023-03-19T07:16:08.231Z,6.78
2023-03-19T07:18:37.471Z,6.28
2023-03-19T07:21:09.372Z,7.78
2023-03-19T07:23:38.562Z,7.85
2023-03-19T07:26:07.857Z,6.78
2023-03-19T07:28:37.324Z,7.47
2023-03-19T07:31:07.092Z,10.02
2023-03-19T07:33:36.524Z,8.18
2023-03-19T07:36:06.144Z,8.45
2023-03-19T07:38:37.990Z,9.82
2023-03-19T07:41:07.506Z,8.20
2023-03-19T07:43:36.839Z,10.30
2023-03-19T07:46:06.435Z,8.55
2023-03-19T07:48:35.823Z,9.65
2023-03-19T07:51:05.097Z,8.98
2023-03-19T07:53:34.363Z,9.73
2023-03-19T07:56:06.263Z,8.82
2023-03-19T07:58:35.530Z,10.50
2023-03-19T08:01:04.765Z,10.90
2023-03-19T08:03:34.292Z,9.32
2023-03-19T08:06:03.945Z,8.93
2023-03-19T08:08:34.944Z,8.38
2023-03-19T08:11:07.062Z,9.35
2023-03-19T08:13:36.353Z,10.27
2023-03-19T08:16:06.074Z,9.20
2023-03-19T08:18:35.297Z,9.48
2023-03-19T08:21:04.496Z,9.50
2023-03-19T08:23:36.517Z,9.70
2023-03-19T08:26:08.349Z,12.65
2023-03-19T08:28:38.198Z,8.70
2023-03-19T08:31:10.995Z,10.73
2023-03-19T08:33:40.209Z,9.98
2023-03-19T08:36:10.110Z,9.30
2023-03-19T08:38:39.435Z,9.95
2023-03-19T08:41:11.228Z,7.90
2023-03-19T08:43:40.966Z,9.35
2023-03-19T08:46:10.368Z,8.60
2023-03-19T08:48:41.451Z,9.32
2023-03-19T08:51:10.888Z,8.13
2023-03-19T08:53:40.159Z,8.07
2023-03-19T08:56:12.183Z,10.45
2023-03-19T08:58:42.757Z,9.85
2023-03-19T09:01:12.947Z,9.75
2023-03-19T09:03:42.432Z,9.17
2023-03-19T09:06:12.354Z,7.70
2023-03-19T09:08:41.624Z,10.55
2023-03-19T09:11:14.578Z,8.32
2023-03-19T09:13:43.924Z,9.82
2023-03-19T09:16:13.122Z,9.82
2023-03-19T09:18:42.622Z,10.48
2023-03-19T09:21:12.129Z,11.35
2023-03-19T09:23:41.477Z,8.93
2023-03-19T09:26:13.253Z,12.27
2023-03-19T09:28:42.506Z,11.15
2023-03-19T09:31:12.530Z,8.55
2023-03-19T09:33:41.834Z,9.75
2023-03-19T09:36:11.200Z,10.60
2023-03-19T09:38:40.464Z,9.75
2023-03-19T09:41:11.375Z,10.38
2023-03-19T09:43:57.041Z,9.27
2023-03-19T09:46:29.332Z,8.80
2023-03-19T09:48:59.195Z,8.70
2023-03-19T09:51:30.354Z,10.85
2023-03-19T09:53:59.862Z,10.30
2023-03-19T09:56:29.126Z,9.68
2023-03-19T09:58:58.651Z,9.07
2023-03-19T10:01:31.636Z,7.88
2023-03-19T10:04:18.840Z,8.43
2023-03-19T10:06:50.120Z,9.48
2023-03-19T10:09:23.376Z,7.32
2023-03-19T10:11:57.738Z,10.25
2023-03-19T10:14:41.429Z,8.52
2023-03-19T10:17:14.677Z,7.40
2023-03-19T10:19:44.634Z,8.98
2023-03-19T10:22:15.015Z,7.63
2023-03-19T10:24:44.550Z,6.65
2023-03-19T10:27:14.940Z,7.93
2023-03-19T10:29:44.199Z,8.35
2023-03-19T10:32:18.914Z,7.07
2023-03-19T10:34:48.866Z,8.85
2023-03-19T10:37:20.524Z,8.48
2023-03-19T10:39:49.983Z,7.68
2023-03-19T10:42:22.316Z,7.90
2023-03-19T10:44:52.348Z,8.00
2023-03-19T10:47:24.132Z,7.90
2023-03-19T10:49:53.389Z,7.72
2023-03-19T10:52:24.675Z,8.38
2023-03-19T10:54:56.356Z,8.18
2023-03-19T10:57:27.530Z,8.52
2023-03-19T10:59:56.743Z,10.70
2023-03-19T11:02:32.003Z,9.65
2023-03-19T11:05:12.105Z,9.43
2023-03-19T11:07:41.291Z,9.27
2023-03-19T11:10:15.654Z,11.52
2023-03-19T11:12:44.944Z,8.65
2023-03-19T11:15:18.500Z,11.38
2023-03-19T11:17:51.739Z,7.93
2023-03-19T11:20:24.714Z,10.38
2023-03-19T11:22:54.278Z,9.57
2023-03-19T11:25:27.106Z,7.80
2023-03-19T11:28:03.718Z,9.48
2023-03-19T11:30:36.175Z,8.68
2023-03-19T11:33:16.032Z,9.63
2023-03-19T11:35:46.039Z,9.70
2023-03-19T11:38:16.682Z,9.75
2023-03-19T11:40:46.655Z,9.00
2023-03-19T11:43:22.983Z,9.23
2023-03-19T11:45:53.379Z,10.57
2023-03-19T11:48:28.877Z,8.95
2023-03-19T11:50:59.313Z,8.02
2023-03-19T11:53:29.625Z,8.25
2023-03-19T11:56:01.930Z,9.02
2023-03-19T11:58:46.850Z,8.90
2023-03-19T12:01:17.549Z,9.02
2023-03-19T12:04:01.680Z,8.50
2023-03-19T12:06:35.093Z,9.07
2023-03-19T12:09:05.016Z,12.52
2023-03-19T12:11:36.710Z,9.95
2023-03-19T12:14:09.634Z,14.52
2023-03-19T12:16:46.315Z,9.45
2023-03-19T12:19:20.594Z,9.38
2023-03-19T12:21:56.263Z,10.50
2023-03-19T12:24:28.645Z,9.77
2023-03-19T12:26:59.956Z,11.18
2023-03-19T12:29:30.972Z,10.73
2023-03-19T12:34:31.212Z,10.63
2023-03-19T12:37:05.870Z,8.63
2023-03-19T12:39:35.882Z,10.88
2023-03-19T12:42:05.100Z,10.35
2023-03-19T12:44:35.621Z,9.63
2023-03-19T12:47:05.384Z,9.68
2023-03-19T12:49:36.332Z,11.80
2023-03-19T12:52:09.589Z,12.02
2023-03-19T12:54:39.314Z,15.23
2023-03-19T12:57:09.824Z,13.98
2023-03-19T12:59:39.319Z,10.73
2023-03-19T13:02:11.867Z,9.50
2023-03-19T13:04:41.680Z,9.73
2023-03-19T13:07:14.541Z,9.95
2023-03-19T13:09:45.063Z,7.18
2023-03-19T13:12:14.672Z,7.95
2023-03-19T13:14:47.747Z,7.40
2023-03-19T13:17:20.266Z,7.88
2023-03-19T13:19:52.264Z,6.32
2023-03-19T13:22:24.505Z,8.07
2023-03-19T13:24:53.718Z,6.80
2023-03-19T13:27:23.790Z,5.95
2023-03-19T13:29:58.655Z,7.90
2023-03-19T13:32:28.353Z,6.47
2023-03-19T13:35:10.958Z,9.05
2023-03-19T13:37:43.294Z,8.40
2023-03-19T13:40:27.392Z,8.77
2023-03-19T13:42:58.583Z,10.25
2023-03-19T13:45:32.154Z,6.03
2023-03-19T13:48:08.629Z,7.10
2023-03-19T13:50:53.070Z,6.55
2023-03-19T13:53:35.064Z,7.75
2023-03-19T13:56:12.814Z,4.53
2023-03-19T13:58:52.665Z,6.13
2023-03-19T14:01:36.947Z,6.13
2023-03-19T14:04:06.498Z,6.45
2023-03-19T14:06:37.040Z,5.22
2023-03-19T14:09:09.691Z,6.05
2023-03-19T14:11:39.291Z,7.15
2023-03-19T14:14:08.960Z,5.90
2023-03-19T14:16:38.563Z,5.32
2023-03-19T14:19:13.867Z,5.57
2023-03-19T14:21:46.869Z,19.35
2023-03-19T14:24:55.176Z,5.65
2023-03-19T14:27:19.821Z,5.90
2023-03-19T14:29:49.092Z,7.15
2023-03-19T14:32:18.904Z,6.20
2023-03-19T14:34:48.389Z,5.63
2023-03-19T14:37:22.123Z,5.78
2023-03-19T14:39:55.819Z,6.30
2023-03-19T14:42:26.011Z,5.38
2023-03-19T14:45:14.328Z,4.43
2023-03-19T14:47:48.121Z,5.72
2023-03-19T14:50:44.130Z,6.43
2023-03-19T14:53:14.974Z,6.07
2023-03-19T14:55:49.809Z,5.07
2023-03-19T14:58:18.993Z,4.68
2023-03-19T15:00:48.727Z,5.43
2023-03-19T15:03:22.094Z,5.95
2023-03-19T15:05:52.581Z,4.07
2023-03-19T15:08:23.314Z,5.63
2023-03-19T15:10:57.867Z,4.32
2023-03-19T15:13:29.809Z,2.95
2023-03-19T15:16:06.014Z,3.63
2023-03-19T15:18:35.341Z,3.85
2023-03-19T15:21:04.959Z,4.38
2023-03-19T15:23:34.226Z,3.70
2023-03-19T15:26:08.770Z,3.38
2023-03-19T15:28:46.758Z,3.17
2023-03-19T15:31:30.966Z,4.15
2023-03-19T15:34:02.641Z,4.95
2023-03-19T15:36:33.283Z,4.47
2023-03-19T15:39:03.253Z,4.38
2023-03-19T15:41:35.944Z,4.15
2023-03-19T15:44:05.278Z,4.18
2023-03-19T15:46:35.074Z,3.38
2023-03-19T15:49:05.410Z,3.97
2023-03-19T15:51:34.647Z,3.30
2023-03-19T15:54:03.840Z,3.47
2023-03-19T15:56:35.642Z,4.45
2023-03-19T15:59:05.542Z,3.05
2023-03-19T16:01:34.795Z,3.47
2023-03-19T16:04:04.413Z,3.70
2023-03-19T16:06:34.254Z,4.15
2023-03-19T16:09:10.030Z,3.83
2023-03-19T16:11:41.848Z,2.33
2023-03-19T16:14:12.685Z,3.25
2023-03-19T16:16:42.176Z,3.25
2023-03-19T16:19:26.230Z,5.35
2023-03-19T16:21:55.453Z,5.22
2023-03-19T16:24:27.485Z,3.70
2023-03-19T16:26:59.266Z,2.78
2023-03-19T16:29:28.978Z,5.18
2023-03-19T16:32:01.529Z,4.43
2023-03-19T16:34:37.384Z,3.25
2023-03-19T16:37:21.452Z,4.93
2023-03-19T16:39:56.262Z,4.55
2023-03-19T16:42:32.279Z,3.90
2023-03-19T16:45:04.245Z,3.85
2023-03-19T16:47:33.485Z,6.22
2023-03-19T16:50:02.700Z,4.55
2023-03-19T16:52:31.928Z,5.78
2023-03-19T16:55:01.294Z,6.82
2023-03-19T16:57:33.095Z,5.25
2023-03-19T17:00:02.330Z,4.85
2023-03-19T17:02:31.556Z,5.80
2023-03-19T17:05:00.876Z,5.22
2023-03-19T17:07:30.125Z,4.78
2023-03-19T17:09:59.324Z,5.30
2023-03-19T17:12:28.530Z,4.00
2023-03-19T17:15:00.388Z,4.20
2023-03-19T17:17:29.708Z,5.55
2023-03-19T17:19:59.037Z,4.68
2023-03-19T17:22:28.304Z,4.57
2023-03-19T17:24:57.822Z,4.18
2023-03-19T17:27:28.025Z,5.07
2023-03-19T17:29:59.790Z,4.90
2023-03-19T17:32:29.034Z,4.78
2023-03-19T17:34:58.210Z,5.10
2023-03-19T17:37:27.450Z,5.05
2023-03-19T17:39:56.978Z,5.18
2023-03-19T17:42:26.634Z,5.00
2023-03-19T17:44:56.912Z,5.47
2023-03-19T17:47:28.840Z,4.75
2023-03-19T17:49:58.207Z,8.13
2023-03-19T17:52:27.433Z,10.63
2023-03-19T17:54:56.622Z,8.85
2023-03-19T17:57:26.961Z,7.70
2023-03-19T17:59:56.192Z,7.25
2023-03-19T18:02:31.670Z,8.57
2023-03-19T18:05:00.881Z,10.20
2023-03-19T18:07:30.097Z,9.85
2023-03-19T18:09:59.306Z,10.93
2023-03-19T18:12:28.529Z,9.30
2023-03-19T18:14:57.870Z,9.23
2023-03-19T18:17:27.208Z,10.75
2023-03-19T18:19:59.525Z,8.43
2023-03-19T18:22:29.173Z,8.43
2023-03-19T18:24:58.672Z,10.27
2023-03-19T18:27:28.059Z,9.13
2023-03-19T18:29:57.310Z,9.45
2023-03-19T18:32:27.920Z,14.70
2023-03-19T18:34:59.723Z,17.83
2023-03-19T18:37:30.111Z,12.70
2023-03-19T18:39:59.336Z,12.10
2023-03-19T18:42:28.523Z,10.82
2023-03-19T18:44:57.868Z,9.05
2023-03-19T18:47:27.048Z,8.38
2023-03-19T18:49:57.759Z,7.63
2023-03-19T18:52:29.697Z,7.80
2023-03-19T18:54:58.985Z,8.77
2023-03-19T18:57:28.212Z,8.88
2023-03-19T18:59:57.531Z,9.77
2023-03-19T19:02:32.106Z,10.27
2023-03-19T19:05:01.459Z,11.07
2023-03-19T19:07:33.269Z,15.60
2023-03-19T19:10:05.363Z,15.40
2023-03-19T19:12:35.058Z,14.30
2023-03-19T19:15:05.049Z,14.05
2023-03-19T19:17:35.198Z,14.55
2023-03-19T19:20:04.474Z,15.67
2023-03-19T19:22:36.332Z,13.18
2023-03-19T19:25:05.911Z,12.75
2023-03-19T19:27:35.115Z,14.55
2023-03-19T19:30:04.362Z,12.23
2023-03-19T19:32:35.360Z,10.75
2023-03-19T19:40:08.195Z,10.57
2023-03-19T19:42:37.379Z,10.07
2023-03-19T19:45:07.162Z,9.90
2023-03-19T19:47:37.372Z,9.63
2023-03-19T19:50:07.060Z,9.30
2023-03-19T19:52:36.389Z,9.70
2023-03-19T19:55:10.979Z,11.02
2023-03-19T19:57:40.170Z,10.77
2023-03-19T20:00:12.824Z,11.27
2023-03-19T20:02:42.026Z,11.13
2023-03-19T20:05:12.170Z,11.38
2023-03-19T20:07:41.352Z,10.30
2023-03-19T20:10:13.807Z,9.25
2023-03-19T20:12:44.648Z,10.50
2023-03-19T20:15:17.775Z,10.38
2023-03-19T20:17:47.397Z,10.60
2023-03-19T20:20:17.416Z,12.07
2023-03-19T20:22:46.651Z,11.13
2023-03-19T20:25:18.694Z,12.02
2023-03-19T20:27:47.910Z,12.55
2023-03-19T20:30:23.176Z,13.93
2023-03-19T20:32:52.973Z,13.30
2023-03-19T20:35:23.189Z,19.17
2023-03-19T20:37:52.996Z,16.77
2023-03-19T20:40:25.235Z,13.82
2023-03-19T20:42:54.538Z,15.10
2023-03-19T20:45:24.308Z,13.60
2023-03-19T20:47:57.022Z,12.27
2023-03-19T20:50:28.152Z,12.95
2023-03-19T20:53:01.240Z,12.77
2023-03-19T20:55:33.989Z,12.70
2023-03-19T20:58:03.805Z,11.95
2023-03-19T21:00:33.636Z,11.40
2023-03-19T21:03:03.874Z,12.43
2023-03-19T21:05:35.050Z,13.47
2023-03-19T21:08:04.487Z,13.63
2023-03-19T21:10:37.759Z,14.13
2023-03-19T21:13:07.248Z,12.10
2023-03-19T21:15:37.036Z,11.77
2023-03-19T21:18:06.475Z,11.65
2023-03-19T21:20:36.066Z,10.77
2023-03-19T21:23:08.082Z,9.40
2023-03-19T21:25:39.869Z,10.30
2023-03-19T21:28:09.592Z,11.35
2023-03-19T21:30:39.807Z,10.00
2023-03-19T21:33:09.427Z,11.23
2023-03-19T21:35:38.881Z,10.45
2023-03-19T21:38:08.238Z,11.30
2023-03-19T21:40:40.021Z,10.80
2023-03-19T21:43:09.404Z,10.27
2023-03-19T21:45:39.700Z,11.25
2023-03-19T21:48:19.721Z,12.38
2023-03-19T21:50:50.134Z,12.05
2023-03-19T21:53:19.352Z,11.63
2023-03-19T21:55:51.162Z,11.75
2023-03-19T21:58:20.888Z,12.15
2023-03-19T22:00:50.161Z,10.10
2023-03-19T22:03:20.123Z,10.35
2023-03-19T22:05:49.923Z,10.20
2023-03-19T22:08:20.462Z,10.60
2023-03-19T22:10:52.865Z,11.15
2023-03-19T22:13:22.271Z,10.52
2023-03-19T22:15:54.841Z,10.60
2023-03-19T22:18:24.066Z,10.65
2023-03-19T22:20:53.291Z,10.93
2023-03-19T22:23:23.032Z,9.98
2023-03-19T22:25:55.317Z,9.88
2023-03-19T22:28:25.846Z,10.10
2023-03-19T22:30:55.066Z,9.18
2023-03-19T22:33:24.599Z,9.55
2023-03-19T22:35:53.924Z,10.25
2023-03-19T22:38:23.538Z,9.45
2023-03-19T22:40:55.615Z,10.20
2023-03-19T22:43:25.317Z,10.45
2023-03-19T22:45:56.530Z,10.18
2023-03-19T22:48:26.118Z,9.30
2023-03-19T22:50:55.481Z,10.30
2023-03-19T22:53:24.946Z,10.75
2023-03-19T22:55:56.704Z,10.70
2023-03-19T22:58:25.909Z,10.63
2023-03-19T23:00:56.187Z,10.90
2023-03-19T23:03:25.849Z,10.93
2023-03-19T23:05:55.599Z,13.35
2023-03-19T23:08:24.804Z,11.65
2023-03-19T23:10:54.210Z,12.20
2023-03-19T23:13:26.180Z,11.85
2023-03-19T23:15:56.972Z,11.35
2023-03-19T23:18:29.295Z,12.20
2023-03-19T23:20:58.750Z,10.13
2023-03-19T23:23:28.171Z,10.68
2023-03-19T23:25:57.454Z,10.70
2023-03-19T23:28:31.416Z,11.25
2023-03-19T23:31:01.320Z,10.77
2023-03-19T23:33:30.681Z,12.38
2023-03-19T23:36:00.562Z,10.98
2023-03-19T23:38:29.801Z,12.57
2023-03-19T23:40:59.030Z,12.88
2023-03-19T23:43:30.973Z,11.70
2023-03-19T23:46:00.304Z,12.65
2023-03-19T23:48:30.535Z,10.20
2023-03-19T23:50:59.705Z,11.60
2023-03-19T23:53:29.416Z,11.68
2023-03-19T23:55:59.461Z,9.93
2023-03-19T23:58:32.770Z,9.32
